Time;durP1;ratioP1;P1;durP2;ratioP2;P2;SDS_P1;SDS_P2;PMS_P1;PMS_P2;Temp;Humidity;BMP_temperature;BMP_pressure;BME280_temperature;BME280_humidity;BME280_pressure;Samples;Min_cycle;Max_cycle;Signal;HPM_P1;HPM_P2
2021/10/15 00:00:36;;;;;;;33.63;24.48;;;;;;;6.36;100.00;99427.72;2071295;28;20278;-75
2021/10/15 00:01:38;;;;;;;33.77;25.20;;;;;;;6.37;100.00;99431.16;2071114;28;20227;-76
2021/10/15 00:02:39;;;;;;;28.80;24.45;;;;;;;6.37;100.00;99428.50;2079712;28;20227;-75
2021/10/15 00:03:40;;;;;;;29.90;24.43;;;;;;;6.37;100.00;99425.84;2079342;28;20257;-75
2021/10/15 00:04:44;;;;;;;31.33;24.45;;;;;;;6.40;100.00;99426.13;2071307;28;20274;-75
2021/10/15 00:05:47;;;;;;;32.67;25.02;;;;;;;6.39;100.00;99423.75;2079472;28;20235;-76
2021/10/15 00:06:49;;;;;;;31.73;24.02;;;;;;;6.43;100.00;99430.13;2079578;28;20227;-75
2021/10/15 00:07:49;;;;;;;29.60;25.60;;;;;;;6.41;100.00;99418.97;2079685;28;20239;-75
2021/10/15 00:08:51;;;;;;;29.20;25.33;;;;;;;6.44;100.00;99423.78;2079536;28;20227;-75
2021/10/15 00:09:52;;;;;;;31.38;26.60;;;;;;;6.46;100.00;99424.31;2079154;28;20281;-76
2021/10/15 00:10:54;;;;;;;28.83;23.90;;;;;;;6.47;100.00;99423.25;2079619;28;20230;-75
2021/10/15 00:11:56;;;;;;;32.95;24.70;;;;;;;6.47;100.00;99425.91;2071137;28;20235;-75
2021/10/15 00:12:57;;;;;;;28.45;24.00;;;;;;;6.46;100.00;99425.09;2071444;28;20228;-75
2021/10/15 00:13:59;;;;;;;31.40;25.17;;;;;;;6.50;100.00;99422.72;2071280;28;20299;-75
2021/10/15 00:14:59;;;;;;;27.35;23.92;;;;;;;6.54;100.00;99421.16;2071260;28;20698;-75
2021/10/15 00:16:01;;;;;;;29.00;24.30;;;;;;;6.56;100.00;99429.63;2071173;28;20743;-75
2021/10/15 00:17:02;;;;;;;29.00;23.70;;;;;;;6.59;100.00;99417.69;2079397;28;20758;-75
2021/10/15 00:18:05;;;;;;;30.90;23.53;;;;;;;6.58;100.00;99426.72;2071338;28;20637;-75
2021/10/15 00:19:07;;;;;;;27.45;23.50;;;;;;;6.57;100.00;99430.44;2079365;28;20513;-75
2021/10/15 00:20:09;;;;;;;27.75;23.95;;;;;;;6.59;100.00;99425.66;2078982;28;20223;-76
2021/10/15 00:21:12;;;;;;;30.05;24.80;;;;;;;6.58;100.00;99430.16;2072040;28;20282;-75
2021/10/15 00:22:14;;;;;;;27.27;23.90;;;;;;;6.60;100.00;99425.38;2072138;28;20235;-75
2021/10/15 00:23:15;;;;;;;29.73;25.58;;;;;;;6.58;100.00;99427.50;2078945;28;20752;-75
2021/10/15 00:24:16;;;;;;;28.55;24.13;;;;;;;6.60;100.00;99429.91;2071538;28;20702;-75
2021/10/15 00:25:18;;;;;;;29.10;24.77;;;;;;;6.59;100.00;99425.66;2071496;28;20563;-74
2021/10/15 00:26:21;;;;;;;28.25;24.98;;;;;;;6.56;100.00;99424.34;2071430;28;20224;-75
2021/10/15 00:27:26;;;;;;;28.15;23.58;;;;;;;6.60;100.00;99429.91;2077150;28;20226;-75
2021/10/15 00:28:27;;;;;;;34.10;25.00;;;;;;;6.58;100.00;99424.06;2079451;28;20234;-75
2021/10/15 00:29:31;;;;;;;28.80;24.60;;;;;;;6.59;100.00;99415.84;2079480;28;20216;-75
2021/10/15 00:30:32;;;;;;;26.25;23.45;;;;;;;6.58;100.00;99411.59;2079432;28;20223;-74
2021/10/15 00:31:33;;;;;;;33.30;23.63;;;;;;;6.60;100.00;99422.75;2071059;28;20258;-75
2021/10/15 00:32:34;;;;;;;26.35;22.75;;;;;;;6.61;100.00;99411.09;2071259;28;20290;-75
2021/10/15 00:33:39;;;;;;;27.50;23.30;;;;;;;6.62;100.00;99418.00;2079490;28;20310;-75
2021/10/15 00:34:40;;;;;;;26.95;22.17;;;;;;;6.61;100.00;99408.44;2086740;28;20234;-74
2021/10/15 00:35:42;;;;;;;25.43;22.80;;;;;;;6.62;100.00;99407.38;2079307;28;20231;-75
2021/10/15 00:36:44;;;;;;;26.70;23.48;;;;;;;6.62;100.00;99407.38;2079463;28;20282;-75
2021/10/15 00:37:48;;;;;;;26.33;23.45;;;;;;;6.63;100.00;99402.88;2080122;28;20254;-75
2021/10/15 00:38:49;;;;;;;26.75;23.42;;;;;;;6.63;100.00;99403.69;2080069;28;20670;-75
2021/10/15 00:39:51;;;;;;;27.10;23.87;;;;;;;6.64;100.00;99413.22;2072637;28;20657;-75
2021/10/15 00:40:52;;;;;;;25.25;22.55;;;;;;;6.64;100.00;99410.56;2072502;28;20747;-76
2021/10/15 00:41:53;;;;;;;26.27;23.10;;;;;;;6.62;100.00;99399.44;2072903;28;20590;-75
2021/10/15 00:42:54;;;;;;;26.48;23.67;;;;;;;6.65;100.00;99401.56;2072551;28;20235;-75
2021/10/15 00:44:00;;;;;;;30.83;24.13;;;;;;;6.64;100.00;99402.63;2080964;28;20322;-75
2021/10/15 00:45:00;;;;;;;25.90;22.92;;;;;;;6.65;100.00;99401.56;2073224;28;20702;-75
2021/10/15 00:46:04;;;;;;;29.53;23.67;;;;;;;6.65;100.00;99396.25;2072753;28;20607;-75
2021/10/15 00:47:06;;;;;;;27.13;24.08;;;;;;;6.66;100.00;99392.53;2072278;28;20258;-75
2021/10/15 00:48:10;;;;;;;30.15;23.48;;;;;;;6.64;100.00;99388.56;2073788;28;20220;-75
2021/10/15 00:49:13;;;;;;;25.20;22.65;;;;;;;6.66;100.00;99397.84;2072729;28;20224;-75
2021/10/15 00:50:15;;;;;;;25.35;22.80;;;;;;;6.65;100.00;99393.59;2080653;28;20222;-75
2021/10/15 00:51:16;;;;;;;28.65;23.20;;;;;;;6.68;100.00;99389.63;2073528;28;20224;-75
2021/10/15 00:52:19;;;;;;;25.63;23.07;;;;;;;6.66;100.00;99397.84;2073470;28;20299;-75
2021/10/15 00:53:20;;;;;;;27.77;24.33;;;;;;;6.66;100.00;99397.84;2073526;28;20229;-74
2021/10/15 00:54:23;;;;;;;30.95;24.40;;;;;;;6.67;100.00;99398.63;2073488;28;20215;-75
2021/10/15 00:55:24;;;;;;;26.45;23.75;;;;;;;6.63;100.00;99387.78;2080007;28;20231;-75
2021/10/15 00:56:26;;;;;;;27.13;24.23;;;;;;;6.61;100.00;99389.91;2072695;28;20223;-75
2021/10/15 00:57:27;;;;;;;28.08;23.85;;;;;;;6.54;100.00;99381.38;2064684;28;20239;-75
2021/10/15 00:58:29;;;;;;;29.33;23.47;;;;;;;6.54;100.00;99388.53;2072668;28;20283;-75
2021/10/15 00:59:30;;;;;;;29.25;23.30;;;;;;;6.53;100.00;99393.06;2072477;28;20215;-75
2021/10/15 01:00:33;;;;;;;26.55;23.75;;;;;;;6.50;100.00;99390.91;2064586;28;20240;-75
2021/10/15 01:01:34;;;;;;;26.40;23.40;;;;;;;6.47;100.00;99383.47;2066628;28;20228;-75
2021/10/15 01:02:36;;;;;;;26.25;23.35;;;;;;;6.48;100.00;99390.38;2072683;28;20778;-74
2021/10/15 01:03:37;;;;;;;27.02;23.42;;;;;;;6.46;100.00;99385.34;2072821;28;20232;-76
2021/10/15 01:04:39;;;;;;;27.00;23.77;;;;;;;6.44;100.00;99379.50;2080723;28;20273;-75
2021/10/15 01:05:40;;;;;;;29.75;23.90;;;;;;;6.41;100.00;99380.00;2072397;28;21094;-74
2021/10/15 01:06:42;;;;;;;26.57;23.67;;;;;;;6.38;100.00;99380.53;2064502;28;20654;-75
2021/10/15 01:07:47;;;;;;;26.75;24.02;;;;;;;6.37;100.00;99378.16;2064393;28;20267;-75
2021/10/15 01:08:50;;;;;;;27.63;23.63;;;;;;;6.36;100.00;99373.91;2073004;28;20235;-75
2021/10/15 01:09:51;;;;;;;27.50;23.27;;;;;;;6.35;100.00;99378.41;2080489;28;20319;-75
2021/10/15 01:10:53;;;;;;;26.50;23.20;;;;;;;6.33;100.00;99374.41;2074910;28;20243;-76
2021/10/15 01:11:55;;;;;;;29.17;24.20;;;;;;;6.37;100.00;99368.34;2073289;28;20315;-75
2021/10/15 01:12:58;;;;;;;27.20;23.70;;;;;;;6.36;100.00;99373.91;2073303;28;20219;-75
2021/10/15 01:14:02;;;;;;;28.20;24.08;;;;;;;6.32;100.00;99372.81;2073310;28;20289;-74
2021/10/15 01:15:04;;;;;;;27.67;24.02;;;;;;;6.28;100.00;99374.41;2073387;28;20226;-75
2021/10/15 01:16:07;;;;;;;27.20;24.05;;;;;;;6.20;100.00;99363.25;2073389;28;20220;-74
2021/10/15 01:17:09;;;;;;;26.10;23.25;;;;;;;6.21;100.00;99386.03;2073961;28;20254;-75
2021/10/15 01:18:10;;;;;;;28.33;24.10;;;;;;;6.16;100.00;99383.34;2072584;28;20228;-75
2021/10/15 01:19:12;;;;;;;30.48;24.95;;;;;;;6.14;100.00;99369.59;2072606;28;20258;-75
2021/10/15 01:20:14;;;;;;;27.48;24.13;;;;;;;6.13;100.00;99377.78;2073171;28;20277;-75
2021/10/15 01:21:16;;;;;;;27.45;23.92;;;;;;;6.12;100.00;99377.00;2072022;28;20252;-74
2021/10/15 01:22:17;;;;;;;29.98;24.40;;;;;;;6.12;100.00;99378.84;2072782;28;20224;-75
2021/10/15 01:23:19;;;;;;;29.13;25.13;;;;;;;6.05;100.00;99376.44;2064422;28;20272;-74
2021/10/15 01:24:20;;;;;;;28.23;23.88;;;;;;;6.04;100.00;99374.84;2072363;28;20232;-74
2021/10/15 01:25:22;;;;;;;28.70;24.20;;;;;;;6.03;100.00;99377.75;2072444;28;20247;-74
2021/10/15 01:26:22;;;;;;;26.88;23.85;;;;;;;6.01;100.00;99370.06;2071823;28;20246;-75
2021/10/15 01:27:25;;;;;;;28.20;24.33;;;;;;;5.99;100.00;99366.88;2073161;28;20308;-75
2021/10/15 01:28:27;;;;;;;29.60;24.45;;;;;;;5.95;100.00;99366.59;2071937;28;20224;-75
2021/10/15 01:29:40;;;;;;;26.77;23.92;;;;;;;5.94;100.00;99367.66;2072582;28;20667;-75
2021/10/15 01:30:41;;;;;;;30.42;24.48;;;;;;;5.94;100.00;99364.22;2072003;28;20310;-74
2021/10/15 01:31:42;;;;;;;27.63;24.33;;;;;;;5.93;100.00;99357.31;2072436;28;20231;-75
2021/10/15 01:32:43;;;;;;;27.10;24.20;;;;;;;5.93;100.00;99362.63;2071944;28;20675;-75
2021/10/15 01:33:45;;;;;;;29.77;24.50;;;;;;;5.91;100.00;99364.72;2064110;28;20657;-75
2021/10/15 01:34:46;;;;;;;31.98;24.08;;;;;;;5.93;100.00;99363.41;2064102;28;20221;-75
2021/10/15 01:35:49;;;;;;;30.63;24.75;;;;;;;5.95;100.00;99371.88;2072199;28;20283;-74
2021/10/15 01:36:51;;;;;;;26.30;23.45;;;;;;;5.95;100.00;99355.22;2080505;28;20724;-75
2021/10/15 01:37:54;;;;;;;28.65;23.55;;;;;;;5.98;100.00;99362.63;2074650;28;20231;-75
2021/10/15 01:38:54;;;;;;;30.48;24.00;;;;;;;5.99;100.00;99358.13;2072326;28;20243;-75
2021/10/15 01:39:56;;;;;;;28.50;24.30;;;;;;;6.01;100.00;99364.78;2072268;28;20232;-75
2021/10/15 01:40:57;;;;;;;26.80;24.05;;;;;;;6.01;100.00;99356.84;2072153;28;20314;-75
2021/10/15 01:41:58;;;;;;;27.63;23.20;;;;;;;6.01;100.00;99356.84;2072280;28;20232;-75
2021/10/15 01:42:59;;;;;;;26.00;23.15;;;;;;;6.03;100.00;99360.00;2064225;28;20220;-75
2021/10/15 01:44:01;;;;;;;27.42;24.05;;;;;;;6.03;100.00;99357.34;2072268;28;20315;-75
2021/10/15 01:45:02;;;;;;;25.90;23.27;;;;;;;6.06;100.00;99356.84;2071923;28;20224;-75
2021/10/15 01:46:04;;;;;;;26.77;23.15;;;;;;;6.07;100.00;99363.72;2072365;28;20733;-74
2021/10/15 01:47:05;;;;;;;25.83;23.13;;;;;;;6.10;100.00;99357.94;2073057;28;20228;-75
2021/10/15 01:48:07;;;;;;;26.57;23.60;;;;;;;6.09;100.00;99353.69;2080389;28;20308;-75
2021/10/15 01:49:08;;;;;;;29.38;23.42;;;;;;;6.09;100.00;99361.63;2079834;28;20257;-75
2021/10/15 01:50:12;;;;;;;28.35;24.13;;;;;;;6.06;100.00;99350.75;2065553;28;20221;-74
2021/10/15 01:51:17;;;;;;;27.92;23.02;;;;;;;6.04;100.00;99358.94;2064754;28;20220;-75
2021/10/15 01:52:17;;;;;;;31.38;24.33;;;;;;;6.04;100.00;99352.84;2072235;28;20709;-75
2021/10/15 01:53:19;;;;;;;31.30;25.10;;;;;;;6.03;100.00;99343.31;2080351;28;20605;-75
2021/10/15 01:54:20;;;;;;;30.70;25.83;;;;;;;5.99;100.00;99344.88;2072880;28;20224;-75
2021/10/15 01:55:22;;;;;;;31.97;24.50;;;;;;;6.00;100.00;99352.59;2080292;28;20220;-75
2021/10/15 01:56:23;;;;;;;34.58;25.92;;;;;;;6.02;100.00;99354.97;2078377;28;20231;-75
2021/10/15 01:57:27;;;;;;;30.17;25.97;;;;;;;5.99;100.00;99353.63;2082126;28;20251;-75
2021/10/15 01:58:28;;;;;;;31.70;26.05;;;;;;;6.00;100.00;99349.16;2073003;28;20570;-75
2021/10/15 01:59:29;;;;;;;35.23;25.53;;;;;;;6.00;100.00;99351.78;2072048;28;20324;-75
2021/10/15 02:00:31;;;;;;;31.17;25.75;;;;;;;6.01;100.00;99356.03;2072379;28;20231;-74
2021/10/15 02:01:33;;;;;;;35.70;26.25;;;;;;;5.98;100.00;99352.03;2080223;28;20314;-75
2021/10/15 02:02:34;;;;;;;28.60;25.48;;;;;;;6.00;100.00;99352.59;2080104;28;20223;-75
2021/10/15 02:03:37;;;;;;;28.83;24.87;;;;;;;6.00;100.00;99349.94;2072842;28;20250;-74
2021/10/15 02:04:39;;;;;;;30.25;25.42;;;;;;;5.98;100.00;99354.69;2079795;28;20612;-75
2021/10/15 02:05:41;;;;;;;29.37;25.93;;;;;;;6.00;100.00;99352.59;2071932;28;20228;-75
2021/10/15 02:06:43;;;;;;;31.58;26.45;;;;;;;6.00;100.00;99365.03;2072238;28;20621;-75
2021/10/15 02:07:45;;;;;;;29.35;25.27;;;;;;;5.99;100.00;99355.47;2080246;28;20223;-75
2021/10/15 02:08:47;;;;;;;33.67;25.48;;;;;;;5.95;100.00;99349.91;2072926;28;20905;-74
2021/10/15 02:09:48;;;;;;;30.90;25.90;;;;;;;5.94;100.00;99351.75;2072162;28;20553;-75
2021/10/15 02:10:49;;;;;;;31.98;25.30;;;;;;;5.94;100.00;99348.31;2072036;28;20235;-75
2021/10/15 02:11:51;;;;;;;31.47;25.37;;;;;;;5.92;100.00;99348.59;2072114;28;20262;-74
2021/10/15 02:12:52;;;;;;;30.48;25.55;;;;;;;5.92;100.00;99345.94;2063653;28;20758;-75
2021/10/15 02:13:57;;;;;;;32.47;26.25;;;;;;;5.90;100.00;99347.19;2072390;28;20674;-75
2021/10/15 02:14:58;;;;;;;31.38;25.67;;;;;;;5.91;100.00;99351.50;2071929;28;20290;-74
2021/10/15 02:16:00;;;;;;;32.90;25.97;;;;;;;5.88;100.00;99350.09;2071985;28;20278;-74
2021/10/15 02:17:02;;;;;;;28.02;24.88;;;;;;;5.88;100.00;99347.47;2072209;28;20702;-75
2021/10/15 02:18:06;;;;;;;32.72;26.95;;;;;;;5.88;100.00;99341.38;2080270;28;20223;-75
2021/10/15 02:19:07;;;;;;;30.27;25.75;;;;;;;5.86;100.00;99341.63;2079737;28;20227;-76
2021/10/15 02:20:12;;;;;;;28.33;24.50;;;;;;;5.87;100.00;99343.22;2080195;28;20736;-75
2021/10/15 02:21:12;;;;;;;28.67;25.20;;;;;;;5.83;100.00;99330.78;2088086;28;20229;-75
2021/10/15 02:22:15;;;;;;;28.33;25.10;;;;;;;5.87;100.00;99345.06;2080992;28;20246;-75
2021/10/15 02:23:16;;;;;;;28.58;25.48;;;;;;;5.87;100.00;99347.72;2080126;28;20219;-74
2021/10/15 02:24:21;;;;;;;31.77;25.05;;;;;;;5.86;100.00;99343.47;2080219;28;20231;-74
2021/10/15 02:25:26;;;;;;;28.00;24.70;;;;;;;5.87;100.00;99342.41;2080352;28;20608;-75
2021/10/15 02:26:27;;;;;;;27.15;24.23;;;;;;;5.89;100.00;99335.00;2080941;28;20305;-75
2021/10/15 02:27:28;;;;;;;29.80;24.90;;;;;;;5.90;100.00;99341.91;2079947;28;20227;-75
2021/10/15 02:28:30;;;;;;;30.53;24.03;;;;;;;5.95;100.00;99339.31;2080067;28;20315;-75
2021/10/15 02:29:31;;;;;;;27.73;24.80;;;;;;;5.97;100.00;99339.84;2080111;28;20670;-75
2021/10/15 02:30:32;;;;;;;28.30;23.83;;;;;;;5.97;100.00;99339.06;2080816;28;20631;-75
2021/10/15 02:31:35;;;;;;;29.08;24.55;;;;;;;5.98;100.00;99340.63;2080171;28;20578;-75
2021/10/15 02:32:39;;;;;;;28.13;24.02;;;;;;;5.94;100.00;99341.16;2080083;28;20235;-74
2021/10/15 02:33:40;;;;;;;28.05;23.63;;;;;;;5.95;100.00;99337.47;2080252;28;20853;-75
2021/10/15 02:34:42;;;;;;;25.33;22.60;;;;;;;5.97;100.00;99342.50;2080774;28;20301;-75
2021/10/15 02:35:43;;;;;;;26.83;22.58;;;;;;;6.01;100.00;99346.25;2079919;28;20302;-75
2021/10/15 02:36:44;;;;;;;26.33;23.50;;;;;;;6.01;100.00;99330.34;2079966;28;20224;-75
2021/10/15 02:37:47;;;;;;;26.88;23.23;;;;;;;6.03;100.00;99336.19;2080076;28;20280;-75
2021/10/15 02:38:50;;;;;;;30.02;23.35;;;;;;;6.04;100.00;99327.16;2088183;28;20235;-75
2021/10/15 02:39:51;;;;;;;28.27;23.30;;;;;;;6.09;100.00;99340.44;2079868;28;20231;-76
2021/10/15 02:40:53;;;;;;;25.17;22.53;;;;;;;6.12;100.00;99336.47;2073826;28;20691;-76
2021/10/15 02:41:54;;;;;;;26.63;23.83;;;;;;;6.15;100.00;99342.03;2072650;28;20228;-75
2021/10/15 02:42:56;;;;;;;26.47;23.60;;;;;;;6.18;100.00;99340.75;2071883;28;20307;-75
2021/10/15 02:43:57;;;;;;;27.17;23.58;;;;;;;6.18;100.00;99330.94;2063939;28;20225;-75
2021/10/15 02:45:01;;;;;;;25.67;23.07;;;;;;;6.22;100.00;99333.84;2071640;28;20232;-75
2021/10/15 02:46:02;;;;;;;27.33;23.08;;;;;;;6.24;100.00;99343.13;2072598;28;20216;-75
2021/10/15 02:47:04;;;;;;;27.07;22.73;;;;;;;6.26;100.00;99342.88;2071330;28;20559;-74
2021/10/15 02:48:05;;;;;;;25.33;22.63;;;;;;;6.26;100.00;99337.59;2071666;28;20224;-75
2021/10/15 02:49:08;;;;;;;26.55;22.60;;;;;;;6.30;100.00;99340.50;2071880;28;20220;-75
2021/10/15 02:50:09;;;;;;;26.02;23.40;;;;;;;6.28;100.00;99343.41;2075601;28;20224;-75
2021/10/15 02:51:11;;;;;;;29.87;23.83;;;;;;;6.29;100.00;99342.34;2073372;28;20259;-75
2021/10/15 02:52:12;;;;;;;26.42;23.00;;;;;;;6.31;100.00;99342.09;2078687;28;20231;-75
2021/10/15 02:53:18;;;;;;;24.73;22.13;;;;;;;6.32;100.00;99341.03;2077103;28;20242;-75
2021/10/15 02:54:22;;;;;;;25.42;22.73;;;;;;;6.35;100.00;99346.63;2072323;28;20833;-75
2021/10/15 02:55:26;;;;;;;27.35;23.50;;;;;;;6.34;100.00;99338.91;2071387;28;20240;-75
2021/10/15 02:56:53;;;;;;;25.90;23.13;;;;;;;6.36;100.00;99342.13;2071344;28;20259;-74
2021/10/15 02:57:53;;;;;;;29.30;22.65;;;;;;;6.37;100.00;99343.72;2072576;28;20330;-75
2021/10/15 02:58:57;;;;;;;25.50;22.87;;;;;;;6.36;100.00;99340.25;2071562;28;20232;-75
2021/10/15 02:59:59;;;;;;;25.08;22.70;;;;;;;6.38;100.00;99340.78;2079673;28;20234;-74
2021/10/15 03:01:00;;;;;;;25.40;22.73;;;;;;;6.39;100.00;99344.25;2079338;28;20261;-74
2021/10/15 03:02:02;;;;;;;27.30;22.80;;;;;;;6.41;100.00;99337.59;2071407;28;20220;-75
2021/10/15 03:03:03;;;;;;;24.52;21.95;;;;;;;6.40;100.00;99341.31;2080221;28;20223;-75
2021/10/15 03:04:06;;;;;;;25.27;22.63;;;;;;;6.41;100.00;99332.31;2079865;28;20247;-75
2021/10/15 03:05:07;;;;;;;25.80;22.75;;;;;;;6.41;100.00;99339.47;2079500;28;20250;-76
2021/10/15 03:06:10;;;;;;;26.27;23.67;;;;;;;6.40;100.00;99338.66;2080693;28;20223;-75
2021/10/15 03:07:11;;;;;;;27.02;24.10;;;;;;;6.39;100.00;99333.63;2080676;28;20238;-75
2021/10/15 03:08:13;;;;;;;29.70;24.00;;;;;;;6.43;100.00;99332.06;2080492;28;20314;-75
2021/10/15 03:09:15;;;;;;;26.60;23.90;;;;;;;6.41;100.00;99337.59;2080563;28;20442;-75
2021/10/15 03:10:17;;;;;;;29.00;23.75;;;;;;;6.40;100.00;99324.63;2080607;28;20219;-75
2021/10/15 03:11:18;;;;;;;28.73;25.20;;;;;;;6.42;100.00;99333.09;2080549;28;20592;-75
2021/10/15 03:12:19;;;;;;;29.33;24.83;;;;;;;6.39;100.00;99336.28;2080688;28;20243;-75
2021/10/15 03:13:21;;;;;;;29.70;24.58;;;;;;;6.34;100.00;99330.97;2079797;28;20219;-74
2021/10/15 03:14:23;;;;;;;29.65;25.20;;;;;;;6.34;100.00;99336.25;2063064;28;20225;-75
2021/10/15 03:15:25;;;;;;;27.45;24.48;;;;;;;6.29;100.00;99338.91;2071593;28;20357;-75
2021/10/15 03:16:27;;;;;;;30.53;23.93;;;;;;;6.26;100.00;99332.28;2071608;28;20228;-75
2021/10/15 03:17:27;;;;;;;31.02;24.27;;;;;;;6.27;100.00;99341.03;2071751;28;20685;-75
2021/10/15 03:18:29;;;;;;;25.20;22.70;;;;;;;6.23;100.00;99336.22;2072413;28;20637;-75
2021/10/15 03:19:30;;;;;;;31.13;24.90;;;;;;;6.24;100.00;99339.69;2072468;28;20220;-75
2021/10/15 03:20:32;;;;;;;30.23;24.30;;;;;;;6.22;100.00;99345.25;2079478;28;20219;-75
2021/10/15 03:21:34;;;;;;;27.88;23.50;;;;;;;6.22;100.00;99355.84;2071557;28;20220;-74
2021/10/15 03:22:36;;;;;;;29.33;24.13;;;;;;;6.21;100.00;99350.81;2063900;28;20225;-74
2021/10/15 03:23:38;;;;;;;26.35;23.45;;;;;;;6.18;100.00;99346.84;2079372;28;20617;-75
2021/10/15 03:24:41;;;;;;;27.03;23.93;;;;;;;6.17;100.00;99342.59;2079693;28;20245;-75
2021/10/15 03:25:42;;;;;;;26.45;22.33;;;;;;;6.18;100.00;99352.13;2079750;28;20730;-74
2021/10/15 03:26:43;;;;;;;29.70;23.47;;;;;;;6.17;100.00;99345.25;2079868;28;20223;-74
2021/10/15 03:27:44;;;;;;;25.55;22.85;;;;;;;6.20;100.00;99346.56;2080416;28;20223;-74
2021/10/15 03:28:46;;;;;;;25.00;22.30;;;;;;;6.20;100.00;99341.28;2080486;28;20258;-74
2021/10/15 03:29:47;;;;;;;28.90;23.77;;;;;;;6.23;100.00;99346.03;2080457;28;20223;-74
2021/10/15 03:30:49;;;;;;;26.03;22.27;;;;;;;6.21;100.00;99337.56;2080457;28;20261;-74
2021/10/15 03:31:50;;;;;;;25.73;22.50;;;;;;;6.22;100.00;99333.84;2080618;28;20681;-74
2021/10/15 03:32:51;;;;;;;25.70;22.27;;;;;;;6.29;100.00;99336.25;2079888;28;20574;-74
2021/10/15 03:33:52;;;;;;;28.50;23.60;;;;;;;6.31;100.00;99334.94;2071170;28;20235;-74
2021/10/15 03:34:54;;;;;;;26.77;23.93;;;;;;;6.30;100.00;99333.34;2071533;28;20248;-74
2021/10/15 03:35:55;;;;;;;25.60;23.02;;;;;;;6.31;100.00;99336.78;2071787;28;20232;-74
2021/10/15 03:36:56;;;;;;;27.53;24.00;;;;;;;6.29;100.00;99331.75;2079573;28;20255;-74
2021/10/15 03:37:57;;;;;;;27.38;24.05;;;;;;;6.29;100.00;99338.91;2079629;28;20718;-75
2021/10/15 03:38:59;;;;;;;28.73;23.97;;;;;;;6.27;100.00;99335.72;2071337;28;20568;-74
2021/10/15 03:40:01;;;;;;;25.13;22.42;;;;;;;6.23;100.00;99333.59;2071424;28;20694;-74
2021/10/15 03:41:03;;;;;;;25.77;23.02;;;;;;;6.28;100.00;99345.28;2071819;28;20223;-74
2021/10/15 03:42:04;;;;;;;26.27;23.45;;;;;;;6.28;100.00;99334.69;2079706;28;20234;-74
2021/10/15 03:43:06;;;;;;;27.87;23.40;;;;;;;6.28;100.00;99337.31;2079837;28;20302;-74
2021/10/15 03:44:06;;;;;;;26.83;22.65;;;;;;;6.28;100.00;99334.69;2079694;28;20211;-75
2021/10/15 03:45:09;;;;;;;29.57;22.90;;;;;;;6.23;100.00;99328.28;2079179;28;20318;-75
2021/10/15 03:46:10;;;;;;;26.88;23.80;;;;;;;6.27;100.00;99344.47;2079664;28;20587;-75
2021/10/15 03:47:12;;;;;;;25.75;23.05;;;;;;;6.27;100.00;99335.72;2079522;28;20232;-76
2021/10/15 03:48:16;;;;;;;25.85;23.17;;;;;;;6.25;100.00;99338.63;2079666;28;20219;-75
2021/10/15 03:49:18;;;;;;;28.60;24.45;;;;;;;6.26;100.00;99339.44;2079913;28;20227;-75
2021/10/15 03:50:18;;;;;;;28.08;25.08;;;;;;;6.25;100.00;99338.63;2079770;28;20219;-75
2021/10/15 03:51:20;;;;;;;26.10;23.53;;;;;;;6.24;100.00;99332.53;2080401;28;20216;-75
2021/10/15 03:52:21;;;;;;;28.48;24.13;;;;;;;6.26;100.00;99337.59;2087825;28;20268;-75
2021/10/15 03:53:22;;;;;;;29.20;24.03;;;;;;;6.22;100.00;99337.28;2081284;28;20235;-76
2021/10/15 03:54:23;;;;;;;28.75;25.58;;;;;;;6.22;100.00;99336.50;2079715;28;20231;-75
2021/10/15 03:55:27;;;;;;;32.47;26.50;;;;;;;6.21;100.00;99338.34;2079542;28;20254;-76
2021/10/15 03:56:28;;;;;;;28.83;25.70;;;;;;;6.18;100.00;99333.59;2071275;28;20219;-76
2021/10/15 03:57:30;;;;;;;28.02;24.98;;;;;;;6.17;100.00;99337.28;2071472;28;20306;-75
2021/10/15 03:58:31;;;;;;;30.20;25.33;;;;;;;6.18;100.00;99341.53;2071404;28;20308;-75
2021/10/15 03:59:33;;;;;;;27.73;23.43;;;;;;;6.17;100.00;99347.91;2063243;28;20220;-75
2021/10/15 04:00:33;;;;;;;27.88;24.95;;;;;;;6.15;100.00;99339.38;2063168;28;20221;-75
2021/10/15 04:01:35;;;;;;;29.07;24.33;;;;;;;6.16;100.00;99340.97;2063246;28;20707;-75
2021/10/15 04:02:37;;;;;;;29.23;24.33;;;;;;;6.13;100.00;99338.84;2063298;28;20229;-75
2021/10/15 04:03:40;;;;;;;30.58;24.77;;;;;;;6.13;100.00;99335.41;2077284;28;20585;-76
2021/10/15 04:04:40;;;;;;;29.88;25.45;;;;;;;6.12;100.00;99334.63;2073473;28;20250;-75
2021/10/15 04:05:42;;;;;;;30.67;25.07;;;;;;;6.13;100.00;99338.84;2072005;28;20239;-75
2021/10/15 04:06:43;;;;;;;27.83;24.30;;;;;;;6.10;100.00;99334.09;2079241;28;20226;-75
2021/10/15 04:07:44;;;;;;;28.30;23.43;;;;;;;6.10;100.00;99339.38;2071258;28;20694;-75
2021/10/15 04:08:45;;;;;;;28.52;24.10;;;;;;;6.10;100.00;99334.09;2071150;28;20702;-75
2021/10/15 04:09:47;;;;;;;26.20;23.37;;;;;;;6.10;100.00;99335.94;2079550;28;20640;-75
2021/10/15 04:10:49;;;;;;;28.60;23.38;;;;;;;6.08;100.00;99333.56;2079305;28;20315;-75
2021/10/15 04:11:51;;;;;;;27.73;23.70;;;;;;;6.08;100.00;99335.38;2079513;28;20636;-75
2021/10/15 04:12:52;;;;;;;26.65;23.75;;;;;;;6.08;100.00;99338.84;2071592;28;20262;-76
2021/10/15 04:13:53;;;;;;;28.50;24.07;;;;;;;6.09;100.00;99345.75;2072969;28;20266;-75
2021/10/15 04:14:54;;;;;;;25.73;23.10;;;;;;;6.06;100.00;99342.78;2072550;28;20698;-75
2021/10/15 04:16:01;;;;;;;26.87;23.70;;;;;;;6.07;100.00;99336.44;2064940;28;20644;-75
2021/10/15 04:17:02;;;;;;;29.27;24.40;;;;;;;6.08;100.00;99341.50;2065595;28;20315;-75
2021/10/15 04:18:04;;;;;;;26.23;23.00;;;;;;;6.07;100.00;99331.94;2073050;28;20702;-75
2021/10/15 04:19:05;;;;;;;25.00;22.30;;;;;;;6.06;100.00;99332.19;2074750;28;20753;-75
2021/10/15 04:20:08;;;;;;;25.83;22.77;;;;;;;6.07;100.00;99337.22;2073012;28;20644;-75
2021/10/15 04:21:09;;;;;;;25.45;22.48;;;;;;;6.04;100.00;99332.47;2079005;28;20235;-76
2021/10/15 04:22:11;;;;;;;26.07;23.27;;;;;;;6.08;100.00;99338.84;2081315;28;20289;-75
2021/10/15 04:23:13;;;;;;;27.52;23.08;;;;;;;6.08;100.00;99335.38;2081331;28;20237;-75
2021/10/15 04:24:15;;;;;;;28.08;23.23;;;;;;;6.12;100.00;99333.81;2081090;28;20219;-75
2021/10/15 04:25:17;;;;;;;26.25;23.35;;;;;;;6.12;100.00;99334.63;2081182;28;20272;-75
2021/10/15 04:26:19;;;;;;;25.95;23.25;;;;;;;6.15;100.00;99335.94;2081154;28;20223;-75
2021/10/15 04:27:21;;;;;;;28.13;23.98;;;;;;;6.16;100.00;99335.69;2072935;28;20303;-75
2021/10/15 04:28:21;;;;;;;25.27;22.60;;;;;;;6.15;100.00;99334.09;2080968;28;20321;-76
2021/10/15 04:29:23;;;;;;;26.87;23.97;;;;;;;6.19;100.00;99335.19;2081983;28;20232;-76
2021/10/15 04:30:24;;;;;;;26.13;23.50;;;;;;;6.21;100.00;99332.25;2081779;28;20227;-76
2021/10/15 04:31:26;;;;;;;25.33;22.70;;;;;;;6.22;100.00;99329.34;2081640;28;20234;-76
2021/10/15 04:32:29;;;;;;;27.80;22.88;;;;;;;6.23;100.00;99336.22;2080866;28;20269;-75
2021/10/15 04:33:30;;;;;;;27.73;24.13;;;;;;;6.22;100.00;99329.34;2081167;28;20685;-75
2021/10/15 04:34:31;;;;;;;26.17;23.48;;;;;;;6.21;100.00;99330.41;2081794;28;20703;-75
2021/10/15 04:35:33;;;;;;;29.57;24.90;;;;;;;6.20;100.00;99330.66;2080966;28;20652;-75
2021/10/15 04:36:35;;;;;;;26.92;23.95;;;;;;;6.18;100.00;99330.94;2081292;28;20223;-75
2021/10/15 04:37:37;;;;;;;30.58;24.42;;;;;;;6.10;100.00;99320.03;2073116;28;20290;-75
2021/10/15 04:38:40;;;;;;;27.83;24.08;;;;;;;6.11;100.00;99326.94;2072410;28;20709;-75
2021/10/15 04:39:42;;;;;;;26.50;23.80;;;;;;;6.09;100.00;99321.91;2081371;28;20243;-75
2021/10/15 04:40:44;;;;;;;26.23;23.48;;;;;;;6.11;100.00;99321.63;2080983;28;20713;-75
2021/10/15 04:41:46;;;;;;;27.02;23.95;;;;;;;6.08;100.00;99328.25;2072620;28;20231;-75
2021/10/15 04:42:48;;;;;;;26.02;23.33;;;;;;;6.09;100.00;99324.56;2073109;28;20703;-75
2021/10/15 04:43:49;;;;;;;27.20;24.15;;;;;;;6.08;100.00;99328.25;2072749;28;20797;-75
2021/10/15 04:44:52;;;;;;;27.20;23.88;;;;;;;6.07;100.00;99324.00;2080551;28;20781;-75